createdAt,value
2023-04-07T00:00:13.374Z,63.65
2023-04-07T00:03:07.174Z,63.43
2023-04-07T00:05:37.089Z,63.46
2023-04-07T00:08:06.646Z,66.31
2023-04-07T00:10:40.248Z,63.34
2023-04-07T00:13:09.491Z,64.60
2023-04-07T00:15:40.583Z,65.97
2023-04-07T00:18:09.885Z,63.58
2023-04-07T00:20:39.481Z,64.46
2023-04-07T00:23:08.597Z,64.68
2023-04-07T00:25:37.978Z,65.57
2023-04-07T00:28:07.258Z,65.67
2023-04-07T00:30:36.613Z,64.78
2023-04-07T00:33:09.741Z,64.34
2023-04-07T00:35:39.511Z,65.86
2023-04-07T00:38:08.638Z,65.39
2023-04-07T00:40:38.145Z,65.22
2023-04-07T00:43:07.317Z,65.73
2023-04-07T00:45:37.840Z,66.93
2023-04-07T00:48:09.404Z,65.25
2023-04-07T00:50:38.818Z,66.77
2023-04-07T00:53:08.172Z,68.10
2023-04-07T00:55:37.707Z,65.58
2023-04-07T00:58:06.946Z,65.21
2023-04-07T01:00:42.605Z,65.15
2023-04-07T01:03:19.461Z,65.96
2023-04-07T01:05:57.088Z,67.40
2023-04-07T01:08:34.506Z,65.97
2023-04-07T01:11:14.804Z,64.98
2023-04-07T01:13:49.563Z,66.23
2023-04-07T01:16:47.084Z,67.17
2023-04-07T01:19:33.457Z,66.78
2023-04-07T01:22:05.532Z,67.21
2023-04-07T01:25:02.591Z,66.30
2023-04-07T01:27:44.295Z,64.93
2023-04-07T01:30:16.726Z,67.63
2023-04-07T01:32:51.624Z,65.41
2023-04-07T01:35:22.172Z,64.97
2023-04-07T01:37:53.755Z,66.67
2023-04-07T01:40:23.984Z,65.33
2023-04-07T01:42:54.463Z,65.75
2023-04-07T01:45:25.913Z,66.88
2023-04-07T01:47:56.426Z,64.96
2023-04-07T01:50:25.989Z,66.57
2023-04-07T01:52:55.972Z,66.59
2023-04-07T01:55:26.113Z,65.25
2023-04-07T01:58:07.118Z,65.83
2023-04-07T02:00:39.614Z,65.74
2023-04-07T02:03:21.800Z,66.10
2023-04-07T02:05:55.961Z,67.56
2023-04-07T02:08:31.882Z,67.40
2023-04-07T02:11:05.019Z,66.27
2023-04-07T02:13:40.350Z,66.76
2023-04-07T02:16:15.798Z,66.84
2023-04-07T02:18:47.863Z,66.69
2023-04-07T02:21:18.556Z,67.80
2023-04-07T02:23:49.022Z,65.80
2023-04-07T02:26:18.292Z,67.41
2023-04-07T02:28:47.677Z,65.51
2023-04-07T02:31:27.322Z,66.35
2023-04-07T02:33:56.923Z,66.78
2023-04-07T02:36:26.490Z,66.00
2023-04-07T02:38:55.759Z,67.38
2023-04-07T02:41:25.035Z,67.34
2023-04-07T02:43:55.431Z,66.21
2023-04-07T02:46:26.364Z,66.63
2023-04-07T02:48:55.773Z,67.84
2023-04-07T02:51:24.998Z,67.82
2023-04-07T02:53:54.557Z,69.05
2023-04-07T02:56:23.935Z,68.32
2023-04-07T02:58:53.354Z,68.20
2023-04-07T03:01:23.035Z,66.53
2023-04-07T03:03:55.829Z,67.76
2023-04-07T03:06:28.207Z,68.41
2023-04-07T03:09:09.011Z,66.71
2023-04-07T03:11:38.502Z,66.70
2023-04-07T03:14:08.292Z,65.94
2023-04-07T03:16:44.247Z,66.00
2023-04-07T03:19:17.394Z,65.90
2023-04-07T03:21:49.885Z,66.64
2023-04-07T03:24:19.394Z,65.60
2023-04-07T03:26:49.083Z,65.69
2023-04-07T03:29:28.069Z,65.43
2023-04-07T03:31:57.646Z,65.63
2023-04-07T03:34:29.326Z,65.91
2023-04-07T03:37:00.615Z,68.19
2023-04-07T03:39:32.659Z,68.23
2023-04-07T03:42:03.432Z,67.69
2023-04-07T03:44:35.277Z,66.23
2023-04-07T03:47:04.496Z,65.43
2023-04-07T03:49:38.397Z,67.47
2023-04-07T03:52:08.743Z,67.47
2023-04-07T03:54:38.769Z,67.74
2023-04-07T03:57:08.219Z,66.25
2023-04-07T03:59:43.632Z,66.79
2023-04-07T04:02:13.177Z,66.47
2023-04-07T04:04:44.399Z,67.78
2023-04-07T04:07:14.590Z,67.85
2023-04-07T04:09:47.989Z,67.15
2023-04-07T04:12:17.539Z,66.26
2023-04-07T04:15:03.192Z,68.80
2023-04-07T04:17:34.123Z,66.74
2023-04-07T04:20:07.917Z,66.67
2023-04-07T04:22:45.440Z,67.05
2023-04-07T04:25:15.231Z,67.48
2023-04-07T04:27:49.505Z,68.95
2023-04-07T04:30:28.440Z,67.80
2023-04-07T04:33:03.201Z,67.67
2023-04-07T04:36:07.843Z,67.53
2023-04-07T04:38:37.274Z,66.46
2023-04-07T04:41:14.613Z,66.68
2023-04-07T04:43:45.202Z,67.78
2023-04-07T04:46:19.527Z,68.42
2023-04-07T04:48:51.620Z,66.53
2023-04-07T04:51:24.195Z,68.57
2023-04-07T04:53:58.619Z,68.92
2023-04-07T04:56:29.653Z,68.13
2023-04-07T04:58:59.004Z,68.68
2023-04-07T05:01:40.634Z,68.68
2023-04-07T05:04:14.136Z,68.17
2023-04-07T05:06:52.326Z,69.23
2023-04-07T05:09:24.796Z,69.62
2023-04-07T05:11:54.240Z,69.37
2023-04-07T05:14:24.454Z,69.08
2023-04-07T05:17:05.334Z,68.08
2023-04-07T05:19:34.960Z,70.02
2023-04-07T05:22:13.433Z,68.28
2023-04-07T05:24:47.736Z,68.13
2023-04-07T05:27:17.362Z,69.13
2023-04-07T05:29:49.718Z,68.03
2023-04-07T05:32:29.621Z,68.38
2023-04-07T05:35:01.124Z,69.10
2023-04-07T05:37:38.812Z,71.32
2023-04-07T05:40:10.414Z,70.13
2023-04-07T05:42:40.642Z,69.71
2023-04-07T05:45:11.599Z,71.08
2023-04-07T05:47:44.553Z,69.57
2023-04-07T05:50:14.821Z,69.10
2023-04-07T05:52:48.656Z,68.58
2023-04-07T05:55:23.679Z,69.50
2023-04-07T05:57:54.932Z,70.47
2023-04-07T06:00:27.493Z,69.57
2023-04-07T06:03:07.932Z,70.81
2023-04-07T06:05:49.124Z,68.88
2023-04-07T06:08:23.163Z,69.39
2023-04-07T06:10:52.597Z,70.03
2023-04-07T06:13:21.957Z,71.73
2023-04-07T06:15:51.245Z,69.02
2023-04-07T06:18:20.586Z,69.73
2023-04-07T06:20:49.744Z,69.22
2023-04-07T06:23:23.654Z,70.35
2023-04-07T06:25:53.352Z,70.37
2023-04-07T06:28:22.569Z,71.21
2023-04-07T06:30:51.838Z,70.94
2023-04-07T06:33:25.759Z,70.77
2023-04-07T06:35:55.027Z,70.39
2023-04-07T06:38:25.996Z,71.09
2023-04-07T06:40:55.168Z,71.62
2023-04-07T06:43:24.704Z,70.16
2023-04-07T06:45:59.904Z,72.14
2023-04-07T06:48:29.411Z,71.19
2023-04-07T06:50:59.146Z,70.71
2023-04-07T06:53:32.199Z,70.47
2023-04-07T06:56:09.441Z,69.20
2023-04-07T06:58:39.657Z,70.83
2023-04-07T07:01:08.609Z,71.69
2023-04-07T07:03:38.094Z,69.44
2023-04-07T07:06:07.595Z,70.07
2023-04-07T07:08:38.528Z,71.16
2023-04-07T07:11:07.931Z,70.54
2023-04-07T07:13:37.299Z,70.25
2023-04-07T07:16:07.338Z,70.56
2023-04-07T07:18:38.045Z,69.92
2023-04-07T07:21:07.412Z,70.22
2023-04-07T07:23:41.006Z,70.16
2023-04-07T07:26:10.252Z,70.17
2023-04-07T07:28:39.776Z,69.22
2023-04-07T07:31:15.236Z,69.42
2023-04-07T07:33:46.517Z,68.83
2023-04-07T07:36:16.334Z,70.23
2023-04-07T07:38:46.886Z,69.24
2023-04-07T07:41:16.072Z,70.41
2023-04-07T07:43:45.636Z,70.44
2023-04-07T07:46:15.172Z,70.67
2023-04-07T07:48:44.807Z,70.16
2023-04-07T07:51:13.982Z,70.62
2023-04-07T07:53:43.433Z,69.99
2023-04-07T07:56:14.229Z,70.02
2023-04-07T07:58:43.706Z,68.85
2023-04-07T08:01:12.840Z,69.07
2023-04-07T08:03:42.482Z,70.35
2023-04-07T08:06:12.003Z,70.75
2023-04-07T08:08:41.325Z,71.03
2023-04-07T08:11:10.490Z,70.28
2023-04-07T08:13:45.525Z,69.64
2023-04-07T08:16:15.038Z,69.92
2023-04-07T08:18:44.550Z,70.98
2023-04-07T08:21:14.127Z,70.25
2023-04-07T08:23:43.710Z,69.99
2023-04-07T08:26:12.926Z,69.65
2023-04-07T08:28:43.790Z,70.19
2023-04-07T08:31:13.040Z,69.81
2023-04-07T08:33:42.541Z,70.17
2023-04-07T08:36:12.218Z,70.13
2023-04-07T08:38:41.487Z,69.52
2023-04-07T08:41:13.662Z,70.06
2023-04-07T08:43:47.157Z,68.92
2023-04-07T08:46:17.381Z,68.75
2023-04-07T08:48:50.911Z,69.41
2023-04-07T08:51:28.710Z,69.26
2023-04-07T08:54:06.704Z,69.11
2023-04-07T08:56:36.107Z,69.54
2023-04-07T08:59:07.112Z,70.24
2023-04-07T09:01:38.368Z,68.83
2023-04-07T09:04:08.703Z,68.46
2023-04-07T09:06:38.977Z,68.35
2023-04-07T09:09:08.476Z,68.05
2023-04-07T09:11:38.915Z,68.75
2023-04-07T09:14:11.979Z,68.97
2023-04-07T09:16:41.479Z,68.18
2023-04-07T09:19:10.739Z,68.87
2023-04-07T09:21:51.308Z,68.63
2023-04-07T09:24:25.145Z,68.45
2023-04-07T09:27:10.110Z,67.99
2023-04-07T09:29:43.797Z,68.24
2023-04-07T09:32:15.623Z,69.04
2023-04-07T09:34:45.226Z,68.39
2023-04-07T09:37:23.868Z,67.81
2023-04-07T09:39:54.162Z,67.82
2023-04-07T09:42:23.598Z,68.55
2023-04-07T09:44:54.110Z,69.03
2023-04-07T09:47:29.232Z,68.18
2023-04-07T09:49:59.886Z,68.57
2023-04-07T09:52:53.865Z,69.02
2023-04-07T09:55:24.834Z,68.87
2023-04-07T09:57:56.744Z,68.97
2023-04-07T10:00:28.178Z,68.34
2023-04-07T10:02:58.225Z,68.74
2023-04-07T10:05:28.940Z,68.37
2023-04-07T10:07:58.318Z,68.29
2023-04-07T10:10:28.811Z,68.27
2023-04-07T10:13:00.203Z,68.01
2023-04-07T10:15:31.693Z,67.89
2023-04-07T10:18:04.397Z,68.12
2023-04-07T10:20:34.386Z,68.09
2023-04-07T10:23:06.178Z,68.10
2023-04-07T10:25:37.225Z,67.82
2023-04-07T10:28:09.775Z,67.41
2023-04-07T10:30:41.892Z,67.67
2023-04-07T10:33:11.244Z,67.45
2023-04-07T10:36:05.026Z,67.12
2023-04-07T10:38:34.696Z,66.99
2023-04-07T10:41:32.714Z,67.27
2023-04-07T10:44:03.012Z,66.78
2023-04-07T10:47:11.238Z,67.06
2023-04-07T10:50:02.133Z,66.76
2023-04-07T10:52:32.299Z,66.65
2023-04-07T10:55:35.849Z,66.63
2023-04-07T10:58:19.801Z,66.60
2023-04-07T11:01:22.503Z,66.51
2023-04-07T11:04:02.302Z,66.43
2023-04-07T11:06:33.213Z,66.25
2023-04-07T11:09:02.763Z,65.90
2023-04-07T11:11:39.998Z,65.27
2023-04-07T11:14:09.490Z,65.74
2023-04-07T11:16:41.660Z,65.75
2023-04-07T11:19:11.784Z,65.69
2023-04-07T11:21:42.728Z,65.78
2023-04-07T11:24:12.408Z,65.66
2023-04-07T11:26:43.829Z,65.59
2023-04-07T11:29:13.856Z,65.49
2023-04-07T11:31:48.633Z,65.26
2023-04-07T11:34:18.223Z,65.25
2023-04-07T11:36:49.071Z,64.94
2023-04-07T11:39:22.756Z,64.88
2023-04-07T11:41:52.827Z,64.56
2023-04-07T11:44:22.221Z,64.82
2023-04-07T11:46:58.661Z,64.32
2023-04-07T11:49:29.412Z,63.70
2023-04-07T11:52:04.443Z,64.15
2023-04-07T11:54:42.877Z,64.33
2023-04-07T11:57:13.173Z,63.90
2023-04-07T11:59:43.311Z,64.07
2023-04-07T12:02:14.743Z,63.73
2023-04-07T12:04:58.498Z,63.61
2023-04-07T12:07:29.496Z,62.40
2023-04-07T12:09:59.064Z,63.36
2023-04-07T12:12:30.861Z,62.49
2023-04-07T12:15:01.884Z,62.01
2023-04-07T12:17:33.680Z,62.29
2023-04-07T12:20:03.303Z,63.00
2023-04-07T12:22:35.155Z,63.05
2023-04-07T12:25:04.774Z,62.78
2023-04-07T12:27:42.637Z,61.75
2023-04-07T12:30:14.043Z,62.08
2023-04-07T12:32:44.488Z,62.21
2023-04-07T12:35:14.124Z,60.72
2023-04-07T12:37:44.549Z,60.80
2023-04-07T12:40:16.219Z,61.04
2023-04-07T12:42:45.476Z,62.18
2023-04-07T12:45:14.655Z,61.55
2023-04-07T12:47:44.273Z,60.21
2023-04-07T12:50:13.737Z,60.58
2023-04-07T12:52:44.346Z,60.77
2023-04-07T12:55:14.965Z,61.20
2023-04-07T12:57:44.255Z,60.43
2023-04-07T13:00:13.726Z,59.79
2023-04-07T13:02:43.574Z,59.21
2023-04-07T13:05:13.138Z,60.62
2023-04-07T13:07:42.407Z,60.53
2023-04-07T13:10:13.402Z,60.93
2023-04-07T13:12:42.717Z,61.31
2023-04-07T13:15:11.962Z,59.35
2023-04-07T13:17:41.470Z,60.67
2023-04-07T13:20:11.541Z,60.17
2023-04-07T13:22:49.080Z,60.14
2023-04-07T13:25:22.963Z,59.37
2023-04-07T13:27:52.309Z,59.72
2023-04-07T13:30:22.852Z,59.02
2023-04-07T13:32:52.297Z,60.42
2023-04-07T13:35:21.528Z,59.68
2023-04-07T13:37:52.078Z,60.83
2023-04-07T13:40:23.512Z,59.17
2023-04-07T13:42:52.738Z,59.76
2023-04-07T13:45:23.486Z,59.89
2023-04-07T13:47:53.903Z,59.43
2023-04-07T13:50:25.195Z,59.03
2023-04-07T13:52:54.621Z,58.75
2023-04-07T13:55:25.720Z,59.31
2023-04-07T13:57:57.170Z,57.86
2023-04-07T14:00:27.080Z,58.32
2023-04-07T14:02:57.236Z,59.42
2023-04-07T14:05:27.028Z,59.36
2023-04-07T14:07:56.388Z,59.16
2023-04-07T14:10:27.432Z,59.12
2023-04-07T14:12:57.151Z,58.59
2023-04-07T14:15:26.854Z,58.74
2023-04-07T14:17:55.995Z,59.08
2023-04-07T14:20:27.169Z,59.35
2023-04-07T14:22:56.891Z,58.89
2023-04-07T14:25:27.636Z,57.72
2023-04-07T14:27:57.598Z,58.45
2023-04-07T14:30:27.215Z,58.82
2023-04-07T14:32:56.522Z,58.72
2023-04-07T14:35:25.736Z,59.08
2023-04-07T14:37:55.630Z,59.33
2023-04-07T14:40:26.853Z,58.99
2023-04-07T14:45:28.886Z,59.59
2023-04-07T14:47:58.161Z,58.67
2023-04-07T14:50:28.082Z,58.81
2023-04-07T14:52:59.849Z,59.22
2023-04-07T14:55:32.034Z,58.63
2023-04-07T14:58:01.481Z,59.38
2023-04-07T15:00:31.225Z,59.28
2023-04-07T15:03:00.640Z,59.18
2023-04-07T15:05:31.582Z,58.84
2023-04-07T15:08:00.904Z,58.51
2023-04-07T15:10:33.364Z,58.92
2023-04-07T15:13:03.317Z,59.16
2023-04-07T15:15:34.205Z,59.56
2023-04-07T15:18:04.387Z,58.66
2023-04-07T15:20:34.084Z,59.35
2023-04-07T15:23:03.558Z,59.12
2023-04-07T15:25:34.337Z,58.55
2023-04-07T15:28:03.797Z,59.39
2023-04-07T15:30:35.851Z,59.33
2023-04-07T15:33:06.501Z,59.44
2023-04-07T15:35:36.409Z,59.38
2023-04-07T15:38:05.630Z,59.35
2023-04-07T15:40:40.192Z,58.53
2023-04-07T15:43:11.157Z,59.31
2023-04-07T15:45:43.754Z,58.81
2023-04-07T15:48:13.565Z,58.95
2023-04-07T15:50:43.239Z,59.68
2023-04-07T15:53:12.590Z,59.55
2023-04-07T15:55:44.331Z,59.17
2023-04-07T15:58:13.781Z,59.44
2023-04-07T16:00:43.692Z,59.57
2023-04-07T16:03:13.105Z,59.26
2023-04-07T16:05:42.746Z,59.12
2023-04-07T16:08:13.721Z,58.52
2023-04-07T16:10:44.817Z,59.21
2023-04-07T16:13:14.076Z,57.42
2023-04-07T16:15:43.609Z,58.85
2023-04-07T16:18:13.174Z,58.96
2023-04-07T16:20:43.172Z,57.59
2023-04-07T16:23:12.711Z,58.22
2023-04-07T16:25:43.832Z,58.36
2023-04-07T16:28:13.032Z,57.72
2023-04-07T16:30:44.009Z,57.59
2023-04-07T16:33:13.196Z,58.09
2023-04-07T16:35:42.832Z,57.88
2023-04-07T16:38:12.206Z,57.10
2023-04-07T16:40:56.814Z,56.86
2023-04-07T16:43:33.435Z,57.38
2023-04-07T16:46:06.358Z,57.30
2023-04-07T16:48:36.132Z,56.76
2023-04-07T16:51:05.870Z,56.18
2023-04-07T16:53:34.727Z,55.19
2023-04-07T16:56:05.668Z,57.03
2023-04-07T16:58:34.871Z,57.00
2023-04-07T17:01:04.321Z,57.20
2023-04-07T17:03:36.008Z,56.93
2023-04-07T17:06:06.221Z,56.91
2023-04-07T17:08:36.064Z,56.00
2023-04-07T17:11:10.235Z,56.46
2023-04-07T17:13:40.299Z,56.51
2023-04-07T17:16:14.982Z,56.95
2023-04-07T17:18:44.230Z,56.70
2023-04-07T17:21:13.642Z,57.20
2023-04-07T17:23:43.019Z,56.92
2023-04-07T17:26:13.869Z,56.26
2023-04-07T17:28:43.267Z,56.94
2023-04-07T17:31:14.687Z,56.83
2023-04-07T17:33:43.893Z,56.79
2023-04-07T17:36:15.427Z,57.02
2023-04-07T17:38:45.665Z,56.74
2023-04-07T17:41:17.275Z,57.17
2023-04-07T17:43:46.883Z,57.20
2023-04-07T17:46:16.627Z,57.27
2023-04-07T17:48:45.841Z,57.31
2023-04-07T17:51:15.512Z,57.48
2023-04-07T17:53:46.021Z,57.59
2023-04-07T17:56:17.245Z,57.47
2023-04-07T17:58:46.706Z,57.55
2023-04-07T18:01:16.936Z,57.62
2023-04-07T18:03:47.544Z,57.62
2023-04-07T18:06:18.214Z,57.71
2023-04-07T18:08:48.832Z,57.76
2023-04-07T18:11:20.210Z,57.98
2023-04-07T18:13:49.550Z,58.04
2023-04-07T18:16:22.148Z,58.08
2023-04-07T18:18:52.815Z,57.98
2023-04-07T18:21:22.358Z,58.18
2023-04-07T18:23:52.074Z,58.41
2023-04-07T18:26:23.710Z,58.21
2023-04-07T18:28:53.257Z,58.06
2023-04-07T18:31:23.240Z,58.23
2023-04-07T18:33:52.536Z,58.30
2023-04-07T18:36:25.622Z,58.49
2023-04-07T18:38:54.983Z,58.57
2023-04-07T18:41:27.227Z,58.86
2023-04-07T18:43:56.528Z,58.66
2023-04-07T18:46:25.888Z,58.47
2023-04-07T18:48:55.742Z,58.36
2023-04-07T18:51:25.075Z,58.61
2023-04-07T18:53:54.133Z,58.57
2023-04-07T18:56:27.333Z,58.91
2023-04-07T18:58:57.191Z,58.90
2023-04-07T19:01:27.722Z,58.62
2023-04-07T19:03:57.695Z,59.22
2023-04-07T19:06:28.073Z,59.17
2023-04-07T19:08:57.843Z,59.15
2023-04-07T19:11:29.204Z,58.95
2023-04-07T19:13:58.552Z,59.15
2023-04-07T19:16:27.979Z,58.97
2023-04-07T19:18:57.253Z,59.25
2023-04-07T19:21:27.582Z,59.34
2023-04-07T19:23:56.910Z,59.20
2023-04-07T19:26:28.064Z,59.28
2023-04-07T19:28:58.302Z,59.10
2023-04-07T19:31:28.287Z,59.24
2023-04-07T19:33:58.552Z,59.50
2023-04-07T19:36:28.394Z,59.22
2023-04-07T19:39:01.037Z,59.21
2023-04-07T19:41:33.429Z,59.19
2023-04-07T19:44:03.251Z,59.87
2023-04-07T19:46:34.188Z,59.90
2023-04-07T19:49:03.519Z,60.39
2023-04-07T19:51:33.613Z,59.78
2023-04-07T19:54:03.806Z,59.66
2023-04-07T19:56:36.229Z,60.29
2023-04-07T19:59:10.518Z,60.02
2023-04-07T20:01:45.660Z,59.94
2023-04-07T20:04:17.266Z,60.35
2023-04-07T20:06:51.319Z,60.02
2023-04-07T20:09:22.843Z,60.06
2023-04-07T20:12:01.914Z,59.84
2023-04-07T20:14:34.233Z,59.71
2023-04-07T20:17:04.043Z,59.56
2023-04-07T20:19:33.281Z,59.65
2023-04-07T20:22:02.875Z,59.64
2023-04-07T20:24:32.142Z,59.59
2023-04-07T20:27:02.862Z,60.49
2023-04-07T20:29:32.289Z,60.05
2023-04-07T20:32:01.437Z,59.64
2023-04-07T20:34:30.722Z,59.85
2023-04-07T20:37:00.190Z,59.80
2023-04-07T20:39:29.344Z,60.70
2023-04-07T20:41:59.253Z,60.66
2023-04-07T20:44:31.426Z,60.16
2023-04-07T20:47:01.187Z,60.29
2023-04-07T20:49:30.348Z,60.04
2023-04-07T20:51:59.928Z,59.88
2023-04-07T20:54:29.898Z,59.83
2023-04-07T20:57:00.655Z,60.13
2023-04-07T20:59:32.697Z,59.89
2023-04-07T21:02:02.286Z,60.03
2023-04-07T21:04:31.748Z,59.86
2023-04-07T21:07:01.361Z,59.83
2023-04-07T21:09:30.426Z,59.75
2023-04-07T21:12:02.057Z,59.75
2023-04-07T21:14:32.800Z,60.00
2023-04-07T21:17:02.409Z,60.08
2023-04-07T21:19:32.178Z,60.10
2023-04-07T21:22:01.596Z,59.75
2023-04-07T21:24:32.124Z,59.95
2023-04-07T21:27:02.103Z,60.03
2023-04-07T21:29:34.021Z,59.81
2023-04-07T21:32:03.548Z,59.89
2023-04-07T21:34:32.586Z,59.96
2023-04-07T21:37:02.016Z,59.88
2023-04-07T21:39:31.325Z,59.92
2023-04-07T21:42:02.356Z,59.93
2023-04-07T21:44:32.935Z,59.92
2023-04-07T21:47:03.820Z,60.12
2023-04-07T21:49:32.980Z,60.48
2023-04-07T21:52:02.371Z,60.22
2023-04-07T21:54:31.620Z,60.30
2023-04-07T21:57:01.403Z,60.25
2023-04-07T21:59:30.464Z,60.05
2023-04-07T22:02:01.317Z,60.53
2023-04-07T22:04:30.815Z,61.17
2023-04-07T22:07:00.772Z,60.53
2023-04-07T22:09:29.920Z,60.46
2023-04-07T22:11:59.294Z,60.36
2023-04-07T22:14:29.277Z,60.65
2023-04-07T22:17:00.658Z,61.67
2023-04-07T22:19:29.846Z,61.37
2023-04-07T22:21:59.223Z,62.26
2023-04-07T22:24:28.489Z,61.81
2023-04-07T22:26:58.862Z,62.22
2023-04-07T22:29:29.474Z,61.85
2023-04-07T22:32:00.460Z,62.16
2023-04-07T22:34:29.733Z,61.94
2023-04-07T22:36:59.063Z,61.73
2023-04-07T22:39:28.237Z,61.11
2023-04-07T22:41:57.588Z,61.01
2023-04-07T22:44:26.773Z,61.01
2023-04-07T22:46:56.461Z,62.49
2023-04-07T22:49:28.238Z,63.93
2023-04-07T22:51:57.730Z,64.14
2023-04-07T22:54:26.820Z,62.88
2023-04-07T22:56:56.825Z,63.61
2023-04-07T22:59:25.820Z,62.81
2023-04-07T23:01:57.706Z,61.99
2023-04-07T23:04:28.669Z,62.86
2023-04-07T23:06:58.119Z,62.62
2023-04-07T23:09:27.668Z,61.97
2023-04-07T23:11:57.950Z,61.83
2023-04-07T23:14:27.271Z,61.69
2023-04-07T23:16:57.897Z,61.76
2023-04-07T23:19:28.535Z,62.21
2023-04-07T23:21:58.001Z,62.24
2023-04-07T23:24:27.273Z,62.45
2023-04-07T23:26:56.986Z,62.60
2023-04-07T23:29:26.203Z,63.33
2023-04-07T23:31:55.628Z,64.20
2023-04-07T23:34:25.205Z,64.90
2023-04-07T23:36:55.685Z,65.71
2023-04-07T23:39:24.777Z,65.30
2023-04-07T23:41:54.238Z,65.48
2023-04-07T23:44:23.338Z,65.03
2023-04-07T23:46:52.774Z,65.55
2023-04-07T23:49:22.266Z,65.93
2023-04-07T23:51:52.042Z,64.84
2023-04-07T23:54:22.614Z,65.53
2023-04-07T23:56:52.055Z,65.64
2023-04-07T23:59:21.252Z,65.64
